This is the latest recevied weather packets stored in our database for station/object K1LBG. If no packets are shown the sender has not sent any weather packets the latest 10 day(s).
| Time | Temp. | Humidity | Pressure | Rain* | Wind** | Luminosity | Snow |
|---|---|---|---|---|---|---|---|
| 1777251084 | 8.33° C | 65% | 1021.3 hPa | 0 mm | - | - | - |
| 1777249317 | 10° C | 62% | 1021 hPa | 0 mm | - | - | - |
| 1777248693 | 10° C | 62% | 1021 hPa | 0 mm | - | - | - |
| 1777247196 | 11.11° C | 58% | 1020.7 hPa | 0 mm | - | - | - |
| 1777245100 | 13.33° C | 50% | 1020.4 hPa | 0 mm | - | - | - |
| 1777244500 | 13.33° C | 49% | 1020.4 hPa | 0 mm | - | - | - |
| 1777243594 | 13.33° C | 48% | 1020.4 hPa | 0 mm | - | - | - |
| 1777242394 | 13.89° C | 48% | 1020.3 hPa | 0 mm | - | - | - |
| 1777241183 | 14.44° C | 46% | 1020.3 hPa | 0 mm | - | - | - |
| 1777240889 | 14.44° C | 46% | 1020.3 hPa | 0 mm | - | - | - |
| 1777236992 | 15.56° C | 47% | 1020 hPa | 0 mm | - | - | - |
| 1777236715 | 15.56° C | 44% | 1019.9 hPa | 0 mm | - | - | - |
| 1777234293 | 15.56° C | 45% | 1019.7 hPa | 0 mm | - | - | - |
| 1777233088 | 15.56° C | 45% | 1019.8 hPa | 0 mm | - | - | - |
| 1777231907 | 15° C | 43% | 1019.8 hPa | 0 mm | - | - | - |
| 1777230989 | 15° C | 43% | 1019.8 hPa | 0 mm | - | - | - |
| 1777230096 | 15° C | 44% | 1019.9 hPa | 0 mm | - | - | - |
| 1777227083 | 13.89° C | 46% | 1020.4 hPa | 0 mm | - | - | - |
| 1777226497 | 13.89° C | 54% | 1020.4 hPa | 0 mm | - | - | - |
| 1777225594 | 13.33° C | 50% | 1020.3 hPa | 0 mm | - | - | - |
| 1777225009 | 13.33° C | 50% | 1020.3 hPa | 0 mm | - | - | - |
| 1777223494 | 12.22° C | 51% | 1020.3 hPa | 0 mm | - | - | - |
| 1777222596 | 12.22° C | 54% | 1020.4 hPa | 0 mm | - | - | - |
| 1777221696 | 12.22° C | 53% | 1020.4 hPa | 0 mm | - | - | - |
| 1777220510 | 12.22° C | 56% | 1020.4 hPa | 0 mm | - | - | - |
* Rain latest hour (hover to see other rain measurements)
** Current wind speed in m/s (hover to see current wind gust speed)